Time;durP1;ratioP1;P1;durP2;ratioP2;P2;SDS_P1;SDS_P2;PMS_P1;PMS_P2;Temp;Humidity;BMP_temperature;BMP_pressure;BME280_temperature;BME280_humidity;BME280_pressure;Samples;Min_cycle;Max_cycle;Signal;HPM_P1;HPM_P2
2022/09/29 00:00:13;;;;;;;6.50;5.60;;;23.10;99.90;;;;;;6273224;27;90046;-65
2022/09/29 00:03:17;;;;;;;5.75;5.15;;;23.10;99.90;;;;;;6284027;27;88184;-64
2022/09/29 00:06:19;;;;;;;6.00;5.40;;;23.00;99.90;;;;;;6272024;27;89455;-65
2022/09/29 00:09:21;;;;;;;6.45;5.80;;;23.00;99.90;;;;;;6276122;27;88675;-65
2022/09/29 00:12:23;;;;;;;6.13;5.50;;;23.00;99.90;;;;;;6272402;27;87962;-64
2022/09/29 00:15:25;;;;;;;5.90;5.30;;;23.00;99.90;;;;;;6283933;27;89138;-65
2022/09/29 00:18:30;;;;;;;6.20;5.60;;;23.00;99.90;;;;;;6271952;27;88684;-64
2022/09/29 00:21:32;;;;;;;6.20;5.40;;;23.00;99.90;;;;;;6278968;27;88404;-64
2022/09/29 00:24:34;;;;;;;6.10;5.50;;;23.00;99.90;;;;;;6268909;27;89301;-64
2022/09/29 00:27:36;;;;;;;6.35;5.75;;;23.00;99.90;;;;;;6280062;27;88993;-64
2022/09/29 00:30:38;;;;;;;6.35;5.75;;;23.00;99.90;;;;;;6280308;27;89998;-64
2022/09/29 00:33:42;;;;;;;6.20;5.60;;;23.00;99.90;;;;;;6283524;27;89112;-64
2022/09/29 00:36:44;;;;;;;5.90;5.35;;;23.00;99.90;;;;;;6288744;27;89127;-64
2022/09/29 00:39:46;;;;;;;6.65;5.95;;;23.00;99.90;;;;;;6269605;27;88918;-64
2022/09/29 00:42:48;;;;;;;6.20;5.60;;;23.00;99.90;;;;;;6282737;27;87975;-64
2022/09/29 00:45:52;;;;;;;6.22;5.28;;;22.90;99.90;;;;;;6285363;27;87989;-64
2022/09/29 00:48:59;;;;;;;6.00;5.40;;;22.90;99.90;;;;;;6272490;27;88271;-64
2022/09/29 00:52:05;;;;;;;6.18;5.57;;;22.90;99.90;;;;;;6270770;27;88323;-64
2022/09/29 00:55:13;;;;;;;6.80;6.10;;;22.90;99.90;;;;;;6282820;27;89151;-64
2022/09/29 00:58:23;;;;;;;6.25;5.55;;;22.90;99.90;;;;;;6267398;27;89346;-64
2022/09/29 01:01:29;;;;;;;6.00;5.40;;;22.90;99.90;;;;;;6279520;27;90013;-64
2022/09/29 01:04:33;;;;;;;6.55;5.65;;;22.90;99.90;;;;;;6281006;27;89170;-64
2022/09/29 01:07:35;;;;;;;6.28;5.68;;;22.90;99.90;;;;;;6281759;27;88918;-64
2022/09/29 01:10:40;;;;;;;6.25;5.65;;;22.90;99.90;;;;;;6272789;27;89084;-64
2022/09/29 01:13:42;;;;;;;5.60;5.00;;;22.90;99.90;;;;;;6274484;27;89041;-64
2022/09/29 01:16:44;;;;;;;6.50;5.78;;;22.90;99.90;;;;;;6279251;27;89125;-64
2022/09/29 01:19:57;;;;;;;5.85;5.30;;;22.80;99.90;;;;;;6278897;27;89215;-64
2022/09/29 01:23:42;;;;;;;6.10;5.50;;;22.80;99.90;;;;;;6282786;27;88250;-64
2022/09/29 01:27:13;;;;;;;6.00;5.40;;;22.80;99.90;;;;;;6278986;27;89051;-64
2022/09/29 01:30:20;;;;;;;6.13;5.55;;;22.90;99.90;;;;;;6279234;27;89151;-64
2022/09/29 01:33:34;;;;;;;5.75;5.18;;;22.80;99.90;;;;;;6284781;27;88938;-64
2022/09/29 01:36:49;;;;;;;6.22;5.63;;;22.80;99.90;;;;;;6276055;27;89080;-64
2022/09/29 01:40:00;;;;;;;6.65;5.40;;;22.80;99.90;;;;;;6277082;27;89044;-64
2022/09/29 01:43:07;;;;;;;6.40;5.57;;;22.80;99.90;;;;;;6281943;27;87952;-64
2022/09/29 01:46:14;;;;;;;5.85;5.25;;;22.80;99.90;;;;;;6281573;27;89089;-64
2022/09/29 01:49:19;;;;;;;5.97;5.38;;;22.80;99.90;;;;;;6281239;27;88029;-64
2022/09/29 01:52:25;;;;;;;5.90;5.30;;;22.80;99.90;;;;;;6280988;27;88117;-64
2022/09/29 01:55:31;;;;;;;5.43;4.93;;;22.80;99.90;;;;;;6281608;27;89188;-64
2022/09/29 01:58:39;;;;;;;5.43;4.93;;;22.80;99.90;;;;;;6280276;27;89009;-64
2022/09/29 02:01:44;;;;;;;5.45;4.95;;;22.80;99.90;;;;;;6271921;27;89474;-64
2022/09/29 02:04:53;;;;;;;5.50;5.00;;;22.80;99.90;;;;;;6280652;27;90367;-64
2022/09/29 02:08:00;;;;;;;6.30;5.70;;;22.80;99.90;;;;;;6277543;27;89279;-64
2022/09/29 02:11:04;;;;;;;5.30;4.80;;;22.80;99.90;;;;;;6279866;27;89138;-64
2022/09/29 02:14:13;;;;;;;5.72;5.13;;;22.70;99.90;;;;;;6280849;27;89036;-64
2022/09/29 02:17:19;;;;;;;5.40;4.88;;;22.70;99.90;;;;;;6281251;27;89484;-64
2022/09/29 02:20:23;;;;;;;5.32;4.82;;;22.70;99.90;;;;;;6276034;27;87909;-64
2022/09/29 02:23:25;;;;;;;5.72;5.07;;;22.70;99.90;;;;;;6278106;27;89014;-64
2022/09/29 02:26:33;;;;;;;5.63;4.90;;;22.70;99.90;;;;;;6280874;27;88368;-64
2022/09/29 02:29:36;;;;;;;6.35;4.90;;;22.70;99.90;;;;;;6279424;27;88857;-63
2022/09/29 02:32:38;;;;;;;5.80;5.20;;;22.70;99.90;;;;;;6280847;27;89269;-64
2022/09/29 02:35:51;;;;;;;5.35;4.85;;;22.70;99.90;;;;;;6274777;27;90052;-64
2022/09/29 02:38:56;;;;;;;5.30;4.80;;;22.70;99.90;;;;;;6280531;27;89096;-64
2022/09/29 02:42:07;;;;;;;5.05;4.55;;;22.70;99.90;;;;;;6281018;27;89162;-64
2022/09/29 02:45:33;;;;;;;5.05;4.55;;;22.60;99.90;;;;;;6282194;27;89213;-64
2022/09/29 02:49:03;;;;;;;5.15;4.65;;;22.70;99.90;;;;;;6276787;27;88965;-64
2022/09/29 02:52:18;;;;;;;5.28;4.78;;;22.70;99.90;;;;;;6272684;27;89172;-64
2022/09/29 02:55:25;;;;;;;5.15;4.60;;;22.60;99.90;;;;;;6278864;27;89205;-64
2022/09/29 02:58:33;;;;;;;5.20;4.70;;;22.60;99.90;;;;;;6284223;27;87364;-64
2022/09/29 03:01:35;;;;;;;5.47;4.97;;;22.60;99.90;;;;;;6271709;27;88204;-64
2022/09/29 03:04:37;;;;;;;5.15;4.60;;;22.60;99.90;;;;;;6283196;27;89462;-64
2022/09/29 03:07:41;;;;;;;5.03;4.53;;;22.60;99.90;;;;;;6284000;27;89751;-64
2022/09/29 03:10:43;;;;;;;5.07;4.57;;;22.60;99.90;;;;;;6278620;27;87792;-64
2022/09/29 03:13:45;;;;;;;5.13;4.63;;;22.60;99.90;;;;;;6284446;27;89089;-64
2022/09/29 03:16:47;;;;;;;5.00;4.50;;;22.60;99.90;;;;;;6283459;27;88990;-64
2022/09/29 03:19:49;;;;;;;5.53;4.60;;;22.60;99.90;;;;;;6283412;27;89162;-64
2022/09/29 03:22:56;;;;;;;5.10;4.60;;;22.60;99.90;;;;;;6284398;27;89221;-64
2022/09/29 03:25:58;;;;;;;4.63;4.22;;;22.60;99.90;;;;;;6271318;27;89418;-64
2022/09/29 03:29:00;;;;;;;4.57;4.18;;;22.60;99.90;;;;;;6284232;27;88316;-64
2022/09/29 03:32:03;;;;;;;4.57;4.18;;;22.60;99.90;;;;;;6286201;27;89106;-63
2022/09/29 03:35:06;;;;;;;4.93;4.43;;;22.60;99.90;;;;;;6285825;27;88313;-64
2022/09/29 03:38:10;;;;;;;4.65;4.25;;;22.60;99.90;;;;;;6277340;27;90194;-63
2022/09/29 03:41:12;;;;;;;4.53;4.13;;;22.60;99.90;;;;;;6284549;27;89047;-64
2022/09/29 03:44:14;;;;;;;4.45;3.90;;;22.70;99.90;;;;;;6285396;27;89060;-64
2022/09/29 03:47:16;;;;;;;4.30;3.90;;;22.70;99.90;;;;;;6286100;27;87946;-64
2022/09/29 03:50:18;;;;;;;4.38;3.97;;;22.70;99.90;;;;;;6275768;27;87976;-64
2022/09/29 03:53:22;;;;;;;4.38;3.97;;;22.70;99.90;;;;;;6269181;27;89762;-64
2022/09/29 03:56:24;;;;;;;4.20;3.80;;;22.70;99.90;;;;;;6273811;27;89101;-64
2022/09/29 03:59:26;;;;;;;4.40;4.00;;;22.70;99.90;;;;;;6284347;27;88324;-64
2022/09/29 04:02:28;;;;;;;4.22;3.75;;;22.70;99.90;;;;;;6270437;27;89063;-64
2022/09/29 04:05:30;;;;;;;4.15;3.75;;;22.70;99.90;;;;;;6285196;27;88287;-64
2022/09/29 04:08:36;;;;;;;4.20;3.80;;;22.80;99.90;;;;;;6281947;27;89961;-64
2022/09/29 04:11:38;;;;;;;4.22;3.83;;;22.80;99.90;;;;;;6282712;27;89074;-64
2022/09/29 04:14:40;;;;;;;3.80;3.50;;;22.80;99.90;;;;;;6277486;27;89081;-64
2022/09/29 04:17:42;;;;;;;3.63;3.33;;;22.80;99.90;;;;;;6273157;27;89042;-64
2022/09/29 04:20:44;;;;;;;3.60;3.28;;;22.90;99.90;;;;;;6279078;27;89068;-64
2022/09/29 04:23:48;;;;;;;3.40;3.10;;;22.90;99.90;;;;;;6282866;27;89988;-64
2022/09/29 04:26:50;;;;;;;3.63;3.33;;;22.90;99.90;;;;;;6273289;27;89312;-64
2022/09/29 04:29:52;;;;;;;3.70;3.40;;;22.80;99.90;;;;;;6283323;27;88667;-64
2022/09/29 04:32:54;;;;;;;3.50;3.08;;;22.90;99.90;;;;;;6282545;27;89059;-64
2022/09/29 04:35:57;;;;;;;3.17;2.80;;;22.90;99.90;;;;;;6284788;27;89074;-64
2022/09/29 04:39:00;;;;;;;3.75;3.20;;;22.90;99.90;;;;;;6268497;27;90323;-64
2022/09/29 04:42:02;;;;;;;3.65;3.00;;;22.90;99.90;;;;;;6280640;27;89115;-64
2022/09/29 04:45:05;;;;;;;3.10;2.80;;;22.90;99.90;;;;;;6281877;27;89041;-64
2022/09/29 04:48:07;;;;;;;4.13;3.03;;;22.90;99.90;;;;;;6281507;27;89154;-64
2022/09/29 04:51:10;;;;;;;3.17;2.88;;;22.90;99.90;;;;;;6282782;27;89160;-64
2022/09/29 04:54:13;;;;;;;3.20;2.90;;;22.90;99.90;;;;;;6282362;27;87963;-64
2022/09/29 04:57:15;;;;;;;3.60;2.70;;;22.90;99.90;;;;;;6281724;27;89040;-63
2022/09/29 05:00:18;;;;;;;5.28;3.10;;;22.90;99.90;;;;;;6272041;27;88323;-64
2022/09/29 05:03:20;;;;;;;4.38;3.10;;;23.00;99.90;;;;;;6276462;27;89052;-64
2022/09/29 05:06:22;;;;;;;5.18;2.92;;;23.00;99.90;;;;;;6272683;27;88121;-64
2022/09/29 05:09:26;;;;;;;3.53;3.20;;;23.00;99.90;;;;;;6279603;27;90268;-64
2022/09/29 05:12:28;;;;;;;3.08;2.78;;;23.00;99.90;;;;;;6281199;27;89076;-64
2022/09/29 05:15:30;;;;;;;5.22;3.08;;;23.00;99.90;;;;;;6287201;27;89222;-64
2022/09/29 05:18:32;;;;;;;5.75;2.80;;;23.00;99.90;;;;;;6277766;27;89078;-64
2022/09/29 05:21:34;;;;;;;4.78;3.03;;;23.00;99.90;;;;;;6282002;27;89534;-64
2022/09/29 05:24:38;;;;;;;5.45;3.00;;;23.00;99.90;;;;;;6270883;27;87997;-65
2022/09/29 05:27:40;;;;;;;4.82;3.00;;;23.00;99.90;;;;;;6281128;27;88074;-63
2022/09/29 05:30:42;;;;;;;4.13;2.58;;;23.00;97.60;;;;;;6285847;27;88438;-65
2022/09/29 05:33:44;;;;;;;3.70;2.50;;;23.00;96.00;;;;;;6280933;27;90602;-64
2022/09/29 05:36:46;;;;;;;4.57;2.60;;;23.00;94.90;;;;;;6278827;27;89594;-65
2022/09/29 05:39:50;;;;;;;4.40;2.45;;;22.90;95.40;;;;;;6283079;27;90039;-65
2022/09/29 05:42:52;;;;;;;5.13;2.50;;;22.90;96.50;;;;;;6288512;27;89124;-64
2022/09/29 05:46:00;;;;;;;4.85;2.25;;;23.00;97.60;;;;;;6286246;27;89334;-64
2022/09/29 05:49:02;;;;;;;3.08;2.42;;;23.00;98.50;;;;;;6292448;27;89434;-64
2022/09/29 05:52:04;;;;;;;4.15;2.55;;;23.00;99.20;;;;;;6284239;27;89356;-64
2022/09/29 05:55:09;;;;;;;3.85;2.35;;;23.00;99.60;;;;;;6280892;27;89339;-64
2022/09/29 05:58:11;;;;;;;2.80;2.50;;;23.00;99.90;;;;;;6282214;27;89049;-65
2022/09/29 06:01:15;;;;;;;5.25;2.90;;;23.00;99.90;;;;;;6278752;27;91119;-64
2022/09/29 06:04:17;;;;;;;5.70;2.60;;;23.00;99.90;;;;;;6287379;27;89125;-64
2022/09/29 06:07:19;;;;;;;4.35;2.40;;;23.00;99.60;;;;;;6284918;27;89349;-65
2022/09/29 06:10:22;;;;;;;4.50;2.80;;;23.00;97.70;;;;;;6280911;27;90079;-65
2022/09/29 06:13:24;;;;;;;3.40;2.42;;;23.00;95.90;;;;;;6277738;27;87967;-65
2022/09/29 06:16:29;;;;;;;4.25;2.53;;;23.00;94.70;;;;;;6283649;27;88069;-64
2022/09/29 06:19:31;;;;;;;3.20;2.15;;;23.00;94.30;;;;;;6278959;27;89027;-63
2022/09/29 06:22:33;;;;;;;2.78;1.83;;;23.00;93.80;;;;;;6278135;27;90316;-63
2022/09/29 06:25:36;;;;;;;2.33;2.00;;;23.00;93.60;;;;;;6280786;27;89112;-64
2022/09/29 06:28:38;;;;;;;2.92;1.83;;;23.10;94.20;;;;;;6278230;27;89062;-64
2022/09/29 06:31:41;;;;;;;2.30;1.98;;;23.10;94.90;;;;;;6288050;27;87494;-64
2022/09/29 06:37:59;;;;;;;2.25;1.90;;;23.10;95.80;;;;;;6277750;27;88522;-64
2022/09/29 06:41:02;;;;;;;2.67;2.10;;;23.10;96.20;;;;;;6279419;27;90015;-64
2022/09/29 06:44:04;;;;;;;2.55;1.98;;;23.10;96.60;;;;;;6279538;27;89169;-65
2022/09/29 06:47:06;;;;;;;2.00;1.80;;;23.10;97.00;;;;;;6281385;27;89239;-65
2022/09/29 06:50:09;;;;;;;2.10;1.80;;;23.10;97.40;;;;;;6275453;27;89981;-65
2022/09/29 06:53:11;;;;;;;2.95;1.55;;;23.10;97.80;;;;;;6279456;27;89091;-64
2022/09/29 06:56:14;;;;;;;3.10;1.90;;;23.20;98.30;;;;;;6280371;27;89437;-63
2022/09/29 06:59:17;;;;;;;3.78;1.92;;;23.20;98.70;;;;;;6279824;27;88173;-62
2022/09/29 07:02:19;;;;;;;2.67;1.95;;;23.20;98.40;;;;;;6281150;27;88644;-63
2022/09/29 07:05:21;;;;;;;2.90;1.75;;;23.10;93.70;;;;;;6282528;27;89407;-64
2022/09/29 07:08:23;;;;;;;3.35;1.80;;;23.00;92.20;;;;;;6282226;27;89048;-64
2022/09/29 07:11:27;;;;;;;2.83;1.90;;;23.00;92.40;;;;;;6288737;27;90527;-63
2022/09/29 07:14:29;;;;;;;4.90;1.85;;;22.90;91.70;;;;;;6281356;27;89155;-63
2022/09/29 07:17:31;;;;;;;2.15;1.70;;;22.90;91.80;;;;;;6283352;27;87974;-63
2022/09/29 07:20:35;;;;;;;4.88;1.80;;;22.90;92.40;;;;;;6279527;27;89349;-63
2022/09/29 07:23:38;;;;;;;6.32;2.30;;;22.90;93.20;;;;;;6280277;27;87930;-63
2022/09/29 07:26:41;;;;;;;4.82;2.28;;;22.90;93.80;;;;;;6280025;27;87985;-63
2022/09/29 07:29:43;;;;;;;5.82;2.33;;;23.00;94.40;;;;;;6283800;27;90873;-63
2022/09/29 07:32:46;;;;;;;5.75;2.22;;;22.90;94.80;;;;;;6285467;27;87934;-63
2022/09/29 07:35:52;;;;;;;6.00;2.17;;;23.00;95.20;;;;;;6283502;27;88036;-65
2022/09/29 07:38:54;;;;;;;7.35;2.28;;;23.00;95.50;;;;;;6283493;27;88324;-65
2022/09/29 07:41:58;;;;;;;5.53;2.40;;;23.00;95.80;;;;;;6284355;27;90357;-65
2022/09/29 07:45:00;;;;;;;4.75;2.10;;;23.10;96.20;;;;;;6283478;27;89372;-65
2022/09/29 07:48:02;;;;;;;7.47;2.47;;;23.10;96.40;;;;;;6283558;27;87982;-65
2022/09/29 07:51:06;;;;;;;5.60;2.45;;;23.10;96.70;;;;;;6283478;27;89077;-65
2022/09/29 07:54:08;;;;;;;8.48;3.30;;;23.10;97.00;;;;;;6283154;27;89059;-65
2022/09/29 07:57:11;;;;;;;8.82;2.95;;;23.20;97.60;;;;;;6283914;27;89152;-65
2022/09/29 08:00:16;;;;;;;9.38;3.08;;;23.10;97.70;;;;;;6283732;27;89555;-65
2022/09/29 08:03:17;;;;;;;9.68;3.85;;;23.20;98.60;;;;;;6283028;27;88436;-65
2022/09/29 08:06:20;;;;;;;9.10;3.33;;;23.10;99.20;;;;;;6273763;27;89033;-65
2022/09/29 08:09:23;;;;;;;7.97;3.20;;;23.20;99.60;;;;;;6282954;27;87978;-65
2022/09/29 08:12:26;;;;;;;7.60;3.15;;;23.20;99.90;;;;;;6281949;27;89376;-65
2022/09/29 08:15:28;;;;;;;7.13;2.90;;;23.20;99.60;;;;;;6284409;27;89102;-65
2022/09/29 08:18:32;;;;;;;9.88;3.20;;;23.20;99.80;;;;;;6283747;27;89051;-65
2022/09/29 08:21:35;;;;;;;4.90;2.45;;;23.30;99.80;;;;;;6283876;27;89947;-65
2022/09/29 08:24:39;;;;;;;6.18;2.60;;;23.20;99.90;;;;;;6283682;27;89103;-65
2022/09/29 08:27:42;;;;;;;6.05;2.50;;;23.30;99.90;;;;;;6284268;27;89346;-66
2022/09/29 08:30:44;;;;;;;6.13;2.58;;;23.30;99.90;;;;;;6282847;27;89073;-65
2022/09/29 08:33:48;;;;;;;6.88;2.70;;;23.30;99.90;;;;;;6283423;27;88302;-66
2022/09/29 08:36:50;;;;;;;5.85;2.70;;;23.30;99.90;;;;;;6283428;27;89104;-65
2022/09/29 08:39:53;;;;;;;5.57;2.50;;;23.30;99.90;;;;;;6282033;27;89161;-65
2022/09/29 08:43:05;;;;;;;5.10;2.47;;;23.30;99.90;;;;;;6282494;27;92814;-65
2022/09/29 08:46:11;;;;;;;5.15;2.60;;;23.30;99.90;;;;;;6283119;27;90322;-65
2022/09/29 08:49:18;;;;;;;4.57;2.33;;;23.30;99.90;;;;;;6283502;27;89094;-65
2022/09/29 08:52:24;;;;;;;5.72;2.40;;;23.30;99.90;;;;;;6283420;27;87942;-65
2022/09/29 08:55:34;;;;;;;5.78;2.50;;;23.30;99.90;;;;;;6281805;27;87984;-65
2022/09/29 08:58:39;;;;;;;4.85;2.20;;;23.30;99.90;;;;;;6281378;27;89600;-66
2022/09/29 09:01:55;;;;;;;4.50;2.30;;;23.40;99.90;;;;;;6282231;27;88983;-65
2022/09/29 09:05:25;;;;;;;5.78;2.40;;;23.40;99.90;;;;;;6281766;27;88332;-65
2022/09/29 09:08:40;;;;;;;4.50;2.35;;;23.40;99.90;;;;;;6281418;27;89169;-65
2022/09/29 09:11:58;;;;;;;4.20;1.98;;;23.40;99.90;;;;;;6282871;27;89014;-65
2022/09/29 09:15:16;;;;;;;3.50;1.80;;;23.40;99.90;;;;;;6293343;27;90028;-65
2022/09/29 09:18:42;;;;;;;4.07;2.05;;;23.40;99.90;;;;;;6270362;27;89016;-65
2022/09/29 09:21:48;;;;;;;4.47;2.47;;;23.40;99.90;;;;;;6272480;27;89258;-63
2022/09/29 09:24:57;;;;;;;4.40;2.10;;;23.40;99.90;;;;;;6282563;27;89071;-63
2022/09/29 09:28:05;;;;;;;4.10;2.38;;;23.40;99.90;;;;;;6281916;27;88893;-63
2022/09/29 09:31:16;;;;;;;4.78;2.20;;;23.40;99.90;;;;;;6281506;27;89216;-63
2022/09/29 09:34:25;;;;;;;3.63;1.83;;;23.50;99.90;;;;;;6281302;27;89123;-63
2022/09/29 09:37:32;;;;;;;3.92;2.00;;;23.50;99.90;;;;;;6282761;27;88285;-63
2022/09/29 09:40:41;;;;;;;4.72;2.03;;;23.50;99.90;;;;;;6282644;27;90155;-63
2022/09/29 09:43:48;;;;;;;4.47;2.05;;;23.50;99.90;;;;;;6282116;27;89068;-63
2022/09/29 09:46:56;;;;;;;3.78;1.85;;;23.50;99.90;;;;;;6280816;27;90149;-63
2022/09/29 09:50:00;;;;;;;3.30;1.85;;;23.50;99.90;;;;;;6281996;27;89038;-63
2022/09/29 09:53:10;;;;;;;4.30;2.20;;;23.50;99.90;;;;;;6281248;27;89129;-63
2022/09/29 09:56:25;;;;;;;2.65;1.80;;;23.50;99.90;;;;;;6281234;27;89009;-63
2022/09/29 09:59:38;;;;;;;3.70;1.85;;;23.50;99.90;;;;;;6281015;27;87972;-63
2022/09/29 10:02:45;;;;;;;3.40;1.80;;;23.50;99.90;;;;;;6280451;27;89096;-63
2022/09/29 10:05:49;;;;;;;2.95;1.75;;;23.50;99.90;;;;;;6278042;27;88962;-63
2022/09/29 10:08:51;;;;;;;4.05;1.98;;;23.50;99.90;;;;;;6271728;27;88793;-63
2022/09/29 10:11:53;;;;;;;3.75;1.85;;;23.50;99.90;;;;;;6280722;27;89160;-63
2022/09/29 10:15:02;;;;;;;2.95;1.90;;;23.50;99.90;;;;;;6292119;27;88982;-63
2022/09/29 10:18:12;;;;;;;2.70;1.80;;;23.50;99.90;;;;;;6281340;27;90099;-63
2022/09/29 10:21:22;;;;;;;3.22;1.80;;;23.50;99.90;;;;;;6281267;27;89078;-63
2022/09/29 10:24:27;;;;;;;2.63;1.63;;;23.50;99.90;;;;;;6280964;27;89143;-63
2022/09/29 10:27:30;;;;;;;2.92;1.90;;;23.60;99.90;;;;;;6281513;27;88309;-63
2022/09/29 10:30:35;;;;;;;4.20;1.98;;;23.50;99.90;;;;;;6281124;27;88992;-64
2022/09/29 10:33:48;;;;;;;3.35;1.60;;;23.60;99.90;;;;;;6280739;27;89166;-65
2022/09/29 10:36:53;;;;;;;2.25;1.55;;;23.60;99.90;;;;;;6280040;27;89033;-64
2022/09/29 10:40:04;;;;;;;3.10;1.90;;;23.60;99.90;;;;;;6281779;27;87390;-65
2022/09/29 10:43:24;;;;;;;3.33;1.88;;;23.60;99.90;;;;;;6280718;27;90630;-64
2022/09/29 10:46:36;;;;;;;2.05;1.52;;;23.60;99.90;;;;;;6280643;27;89119;-64
2022/09/29 10:49:40;;;;;;;2.83;1.77;;;23.60;99.90;;;;;;6279631;27;90019;-64
2022/09/29 10:52:43;;;;;;;2.70;1.70;;;23.50;99.90;;;;;;6281022;27;89141;-64
2022/09/29 10:55:51;;;;;;;1.95;1.58;;;23.50;99.90;;;;;;6280344;27;89321;-64
2022/09/29 10:58:55;;;;;;;2.95;1.60;;;23.60;99.90;;;;;;6281168;27;89162;-65
2022/09/29 11:02:01;;;;;;;2.15;1.65;;;23.50;99.90;;;;;;6280042;27;89039;-64
2022/09/29 11:05:16;;;;;;;3.30;1.50;;;23.60;99.90;;;;;;6283029;27;89851;-63
2022/09/29 11:08:24;;;;;;;4.05;1.60;;;23.60;99.90;;;;;;6283114;27;89032;-65
2022/09/29 11:11:29;;;;;;;4.20;1.70;;;23.50;99.90;;;;;;6284795;27;88585;-66
2022/09/29 11:14:39;;;;;;;4.32;1.63;;;23.50;99.90;;;;;;6285023;27;87889;-65
2022/09/29 11:17:50;;;;;;;2.40;1.60;;;23.60;99.90;;;;;;6279732;27;89012;-65
2022/09/29 11:21:02;;;;;;;3.25;1.58;;;23.50;99.90;;;;;;6281874;27;89668;-66
2022/09/29 11:24:10;;;;;;;2.53;1.55;;;23.60;99.90;;;;;;6282701;27;89017;-66
2022/09/29 11:27:23;;;;;;;2.90;1.30;;;23.60;99.90;;;;;;6283296;27;89162;-65
2022/09/29 11:30:31;;;;;;;2.67;1.60;;;23.60;99.90;;;;;;6282130;27;89270;-65
2022/09/29 11:33:46;;;;;;;2.55;1.50;;;23.60;99.90;;;;;;6279038;27;87981;-65
2022/09/29 11:36:59;;;;;;;3.17;1.77;;;23.60;99.90;;;;;;6282108;27;89474;-66
2022/09/29 11:40:08;;;;;;;2.97;1.70;;;23.60;99.90;;;;;;6277350;27;87940;-65
2022/09/29 11:43:30;;;;;;;2.60;1.63;;;23.70;99.90;;;;;;6285135;27;88307;-65
2022/09/29 11:46:50;;;;;;;2.08;1.30;;;23.70;99.90;;;;;;6279224;27;89052;-65
2022/09/29 11:50:12;;;;;;;2.53;1.70;;;23.70;99.90;;;;;;6279979;27;89405;-65
2022/09/29 11:53:27;;;;;;;3.58;1.33;;;23.70;99.90;;;;;;6282497;27;89235;-65
2022/09/29 11:56:38;;;;;;;1.90;1.42;;;23.70;99.90;;;;;;6282808;27;88891;-65
2022/09/29 12:00:01;;;;;;;2.17;1.50;;;23.70;99.90;;;;;;6282898;27;89063;-65
2022/09/29 12:03:31;;;;;;;2.22;1.27;;;23.70;99.90;;;;;;6270534;27;89044;-64
2022/09/29 12:06:49;;;;;;;2.47;1.17;;;23.70;99.90;;;;;;6281234;27;89045;-64
2022/09/29 12:10:15;;;;;;;2.03;1.40;;;23.70;99.90;;;;;;6283055;27;88043;-64
2022/09/29 12:13:25;;;;;;;2.10;1.40;;;23.60;99.90;;;;;;6271717;27;90696;-65
2022/09/29 12:16:32;;;;;;;2.15;1.48;;;23.60;99.90;;;;;;6283984;27;88714;-64
2022/09/29 12:19:38;;;;;;;2.83;1.60;;;23.60;99.90;;;;;;6282710;27;89047;-65
2022/09/29 12:22:42;;;;;;;5.40;1.88;;;23.60;99.90;;;;;;6283095;27;89010;-64
2022/09/29 12:25:53;;;;;;;2.92;1.50;;;23.60;99.90;;;;;;6282646;27;90007;-64
2022/09/29 12:29:01;;;;;;;1.98;1.58;;;23.60;99.90;;;;;;6283406;27;89375;-64
2022/09/29 12:32:11;;;;;;;2.15;1.40;;;23.60;99.90;;;;;;6282340;27;89421;-65
2022/09/29 12:35:18;;;;;;;1.77;1.40;;;23.60;99.90;;;;;;6283536;27;89079;-65
2022/09/29 12:38:25;;;;;;;2.10;1.40;;;23.60;99.90;;;;;;6282694;27;87940;-65
2022/09/29 12:41:33;;;;;;;2.40;1.60;;;23.60;99.90;;;;;;6282036;27;89344;-65
2022/09/29 12:44:44;;;;;;;2.13;1.60;;;23.60;99.90;;;;;;6282648;27;89427;-65
2022/09/29 12:47:54;;;;;;;2.08;1.65;;;23.60;99.90;;;;;;6283235;27;88204;-65
2022/09/29 12:51:01;;;;;;;2.40;1.48;;;23.60;99.90;;;;;;6282153;27;89088;-65
2022/09/29 12:54:11;;;;;;;1.95;1.50;;;23.60;98.80;;;;;;6282312;27;89148;-65
2022/09/29 12:57:16;;;;;;;1.70;1.48;;;23.60;97.30;;;;;;6281899;27;90069;-65
2022/09/29 13:00:18;;;;;;;1.55;1.40;;;23.60;96.00;;;;;;6281849;27;89052;-66
2022/09/29 13:03:48;;;;;;;1.65;1.50;;;23.60;94.70;;;;;;6282465;27;89364;-64
2022/09/29 13:07:04;;;;;;;3.20;1.60;;;23.50;93.60;;;;;;6277388;27;89079;-66
2022/09/29 13:10:38;;;;;;;2.00;1.58;;;23.50;92.70;;;;;;6282777;27;89587;-63
2022/09/29 13:14:03;;;;;;;2.28;1.60;;;23.50;92.80;;;;;;6268436;27;89119;-64
2022/09/29 13:17:19;;;;;;;1.92;1.50;;;23.50;93.20;;;;;;6280078;27;89046;-63
2022/09/29 13:20:42;;;;;;;1.95;1.50;;;23.50;93.70;;;;;;6281964;27;88363;-64
2022/09/29 13:24:10;;;;;;;1.38;1.20;;;23.50;94.20;;;;;;6282250;27;89180;-63
2022/09/29 13:27:28;;;;;;;2.10;1.40;;;23.50;94.60;;;;;;6281322;27;89685;-64
2022/09/29 13:30:36;;;;;;;1.77;1.35;;;23.50;95.00;;;;;;6277772;27;90054;-64
2022/09/29 13:33:39;;;;;;;1.45;1.35;;;23.50;95.30;;;;;;6281951;27;89150;-64
2022/09/29 13:36:44;;;;;;;1.23;1.13;;;23.50;95.70;;;;;;6280912;27;89103;-64
2022/09/29 13:39:54;;;;;;;5.43;1.40;;;23.50;96.10;;;;;;6280681;27;89173;-63
2022/09/29 13:42:58;;;;;;;2.45;1.40;;;23.50;96.50;;;;;;6279849;27;89290;-64
2022/09/29 13:46:28;;;;;;;4.75;1.50;;;23.50;97.00;;;;;;6280379;27;89174;-63
2022/09/29 13:49:30;;;;;;;7.43;1.67;;;23.50;97.80;;;;;;6261473;27;87885;-64
2022/09/29 13:52:45;;;;;;;5.13;1.58;;;23.50;98.60;;;;;;6279762;27;88250;-64
2022/09/29 13:55:52;;;;;;;3.83;1.35;;;23.60;99.20;;;;;;6281702;27;88952;-64
2022/09/29 13:58:59;;;;;;;5.20;1.80;;;23.60;99.80;;;;;;6280453;27;89196;-64
2022/09/29 14:02:17;;;;;;;2.85;1.50;;;23.50;99.80;;;;;;6279829;27;90323;-64
2022/09/29 14:05:46;;;;;;;2.78;1.63;;;23.50;99.80;;;;;;6279653;27;88625;-64
2022/09/29 14:08:52;;;;;;;3.03;1.48;;;23.50;99.90;;;;;;6272522;27;88501;-64
2022/09/29 14:11:58;;;;;;;4.63;1.48;;;23.50;99.90;;;;;;6277123;27;89183;-64
2022/09/29 14:15:01;;;;;;;5.88;1.52;;;23.40;99.90;;;;;;6282445;27;89391;-64
2022/09/29 14:18:13;;;;;;;5.20;1.70;;;23.40;99.90;;;;;;6281048;27;89005;-64
2022/09/29 14:21:45;;;;;;;2.70;1.40;;;23.40;99.90;;;;;;6280144;27;89101;-65
2022/09/29 14:24:48;;;;;;;2.50;1.35;;;23.50;99.90;;;;;;6282007;27;88325;-64
2022/09/29 14:28:02;;;;;;;4.05;1.75;;;23.40;99.90;;;;;;6281121;27;88879;-64
2022/09/29 14:31:16;;;;;;;5.63;1.58;;;23.40;99.90;;;;;;6280551;27;90164;-64
2022/09/29 14:34:23;;;;;;;3.33;1.42;;;23.50;99.90;;;;;;6278989;27;90098;-65
2022/09/29 14:37:25;;;;;;;5.63;1.42;;;23.50;99.90;;;;;;6280353;27;88909;-64
2022/09/29 14:40:30;;;;;;;2.72;1.40;;;23.40;99.90;;;;;;6280691;27;89478;-64
2022/09/29 14:43:39;;;;;;;4.80;1.60;;;23.40;99.90;;;;;;6280824;27;87964;-64
2022/09/29 14:54:21;;;;;;;3.40;1.63;;;23.40;99.90;;;;;;6270180;27;87877;-64
2022/09/29 14:57:35;;;;;;;3.30;1.40;;;23.40;99.90;;;;;;6280838;27;88782;-64
2022/09/29 15:01:03;;;;;;;3.08;1.50;;;23.50;99.90;;;;;;6279871;27;87924;-65
2022/09/29 15:04:13;;;;;;;2.67;1.50;;;23.40;99.90;;;;;;6280772;27;89017;-64
2022/09/29 15:07:19;;;;;;;2.15;1.33;;;23.50;99.90;;;;;;6280138;27;90046;-65
2022/09/29 15:10:24;;;;;;;3.53;1.70;;;23.50;99.90;;;;;;6280079;27;89028;-65
2022/09/29 15:13:30;;;;;;;2.03;1.42;;;23.40;99.90;;;;;;6280181;27;89052;-65
2022/09/29 15:16:43;;;;;;;2.80;1.33;;;23.50;99.90;;;;;;6291485;27;89207;-64
2022/09/29 15:20:00;;;;;;;2.55;1.30;;;23.40;99.90;;;;;;6280733;27;89011;-64
2022/09/29 15:23:27;;;;;;;2.13;1.50;;;23.50;99.90;;;;;;6281031;27;89079;-64
2022/09/29 15:26:32;;;;;;;4.55;1.60;;;23.50;99.90;;;;;;6280277;27;89021;-64
2022/09/29 15:29:34;;;;;;;1.50;1.40;;;23.40;99.90;;;;;;6280327;27;88462;-64
2022/09/29 15:32:36;;;;;;;2.28;1.48;;;23.40;99.90;;;;;;6279673;27;89235;-65
2022/09/29 15:35:43;;;;;;;1.80;1.33;;;23.40;99.90;;;;;;6278927;27;88407;-64
2022/09/29 15:38:46;;;;;;;2.63;1.30;;;23.40;99.90;;;;;;6278628;27;90023;-64
2022/09/29 15:42:00;;;;;;;3.17;1.40;;;23.40;99.90;;;;;;6279767;27;89173;-64
2022/09/29 15:45:09;;;;;;;1.73;1.30;;;23.40;99.90;;;;;;6279958;27;89844;-64
2022/09/29 15:48:15;;;;;;;3.95;1.52;;;23.40;99.90;;;;;;6279174;27;89018;-64
2022/09/29 15:51:18;;;;;;;1.55;1.45;;;23.40;99.90;;;;;;6280665;27;89015;-64
2022/09/29 15:54:22;;;;;;;1.73;1.40;;;23.40;99.90;;;;;;6272852;27;89396;-64
2022/09/29 15:57:45;;;;;;;2.55;1.60;;;23.40;99.90;;;;;;6284302;27;89092;-64
2022/09/29 16:00:48;;;;;;;2.30;1.70;;;23.40;99.90;;;;;;6272730;27;88727;-64
2022/09/29 16:03:52;;;;;;;2.08;1.35;;;23.40;99.90;;;;;;6288506;27;89119;-63
2022/09/29 16:06:55;;;;;;;4.10;1.55;;;23.40;99.90;;;;;;6282373;27;89551;-64
2022/09/29 16:10:08;;;;;;;5.97;1.65;;;23.40;99.90;;;;;;6282051;27;89923;-63
2022/09/29 16:13:20;;;;;;;4.22;1.58;;;23.40;99.90;;;;;;6282938;27;87759;-64
2022/09/29 16:16:35;;;;;;;997.55;693.83;;;23.40;99.90;;;;;;6283119;27;88956;-63
2022/09/29 16:19:37;;;;;;;181.07;113.30;;;23.50;99.90;;;;;;6274974;27;89010;-62
2022/09/29 16:22:40;;;;;;;75.70;46.10;;;23.60;99.90;;;;;;6275233;27;89281;-63